Terminal Aerodrome Forecast
Issued by NWS Mobile, AL

Home | Current Version | Previous Version | Text Only | Print | Product List | Glossary On
Versions: 1 2 3 4 5 6 7 8 9 10 11 12 13 14 15 16 17 18 19 20 21 22 23 24 25 26 27 28 29 30 31 32 33 34 35 36
000
FTUS44 KMOB 072320
TAFMOB
TAF
KMOB 072320Z 0800/0824 31005KT P6SM SCT019
     FM080100 02005KT P6SM BKN020
     FM080900 01010KT P6SM OVC011
      TEMPO 0809/0813 OVC007
     FM081500 01014G22KT P6SM SCT050=

USA.gov is the U.S. government's official web portal to all federal, state and local government web resources and services.